sensor_id;sensor_type;location;lat;lon;timestamp;P1;durP1;ratioP1;P2;durP2;ratioP2
6292;SDS011;3179;54.350;10.102;2024-02-15T00:01:00;10.57;;;7.30;;
6292;SDS011;3179;54.350;10.102;2024-02-15T00:03:27;8.60;;;6.67;;
6292;SDS011;3179;54.350;10.102;2024-02-15T00:05:53;8.17;;;6.73;;
6292;SDS011;3179;54.350;10.102;2024-02-15T00:08:20;13.80;;;7.50;;
6292;SDS011;3179;54.350;10.102;2024-02-15T00:10:48;8.03;;;6.43;;
6292;SDS011;3179;54.350;10.102;2024-02-15T00:13:15;9.07;;;7.37;;
6292;SDS011;3179;54.350;10.102;2024-02-15T00:15:42;11.40;;;8.50;;
6292;SDS011;3179;54.350;10.102;2024-02-15T00:18:13;11.77;;;8.00;;
6292;SDS011;3179;54.350;10.102;2024-02-15T00:20:40;10.17;;;7.80;;
6292;SDS011;3179;54.350;10.102;2024-02-15T00:23:09;10.53;;;7.80;;
6292;SDS011;3179;54.350;10.102;2024-02-15T00:25:37;10.57;;;7.73;;
6292;SDS011;3179;54.350;10.102;2024-02-15T00:28:06;10.73;;;8.10;;
6292;SDS011;3179;54.350;10.102;2024-02-15T00:30:34;9.17;;;7.10;;
6292;SDS011;3179;54.350;10.102;2024-02-15T00:33:01;9.30;;;7.20;;
6292;SDS011;3179;54.350;10.102;2024-02-15T00:35:28;9.93;;;7.40;;
6292;SDS011;3179;54.350;10.102;2024-02-15T00:37:55;16.43;;;7.63;;
6292;SDS011;3179;54.350;10.102;2024-02-15T00:40:22;10.30;;;7.60;;
6292;SDS011;3179;54.350;10.102;2024-02-15T00:42:49;9.00;;;6.40;;
6292;SDS011;3179;54.350;10.102;2024-02-15T00:45:17;7.40;;;5.70;;
6292;SDS011;3179;54.350;10.102;2024-02-15T00:47:45;8.53;;;6.57;;
6292;SDS011;3179;54.350;10.102;2024-02-15T00:50:12;8.17;;;6.40;;
6292;SDS011;3179;54.350;10.102;2024-02-15T00:52:38;13.90;;;6.77;;
6292;SDS011;3179;54.350;10.102;2024-02-15T00:55:05;7.67;;;6.40;;
6292;SDS011;3179;54.350;10.102;2024-02-15T00:57:33;8.50;;;6.40;;
6292;SDS011;3179;54.350;10.102;2024-02-15T00:59:59;12.30;;;7.90;;
6292;SDS011;3179;54.350;10.102;2024-02-15T01:02:30;7.57;;;6.50;;
6292;SDS011;3179;54.350;10.102;2024-02-15T01:04:56;12.53;;;7.87;;
6292;SDS011;3179;54.350;10.102;2024-02-15T01:07:24;11.23;;;6.83;;
6292;SDS011;3179;54.350;10.102;2024-02-15T01:09:52;9.73;;;7.43;;
6292;SDS011;3179;54.350;10.102;2024-02-15T01:12:20;9.80;;;6.90;;
6292;SDS011;3179;54.350;10.102;2024-02-15T01:14:46;7.60;;;6.43;;
6292;SDS011;3179;54.350;10.102;2024-02-15T01:17:13;9.57;;;7.43;;
6292;SDS011;3179;54.350;10.102;2024-02-15T01:19:42;10.13;;;7.53;;
6292;SDS011;3179;54.350;10.102;2024-02-15T01:22:09;10.00;;;7.20;;
6292;SDS011;3179;54.350;10.102;2024-02-15T01:24:36;9.33;;;6.83;;
6292;SDS011;3179;54.350;10.102;2024-02-15T01:27:03;8.67;;;6.83;;
6292;SDS011;3179;54.350;10.102;2024-02-15T01:29:31;10.30;;;8.17;;
6292;SDS011;3179;54.350;10.102;2024-02-15T01:31:57;8.33;;;6.40;;
6292;SDS011;3179;54.350;10.102;2024-02-15T01:34:24;11.27;;;7.20;;
6292;SDS011;3179;54.350;10.102;2024-02-15T01:36:52;9.53;;;7.00;;
6292;SDS011;3179;54.350;10.102;2024-02-15T01:39:19;9.13;;;6.77;;
6292;SDS011;3179;54.350;10.102;2024-02-15T01:41:47;8.67;;;6.73;;
6292;SDS011;3179;54.350;10.102;2024-02-15T01:44:16;7.63;;;5.70;;
6292;SDS011;3179;54.350;10.102;2024-02-15T01:46:43;8.17;;;6.43;;
6292;SDS011;3179;54.350;10.102;2024-02-15T01:49:12;8.47;;;6.07;;
6292;SDS011;3179;54.350;10.102;2024-02-15T01:51:40;8.47;;;6.30;;
6292;SDS011;3179;54.350;10.102;2024-02-15T01:54:10;6.90;;;5.50;;
6292;SDS011;3179;54.350;10.102;2024-02-15T01:56:42;6.67;;;5.43;;
6292;SDS011;3179;54.350;10.102;2024-02-15T01:59:09;7.27;;;5.83;;
6292;SDS011;3179;54.350;10.102;2024-02-15T02:01:38;5.70;;;5.10;;
6292;SDS011;3179;54.350;10.102;2024-02-15T02:04:05;9.27;;;6.50;;
6292;SDS011;3179;54.350;10.102;2024-02-15T02:06:32;5.60;;;4.33;;
6292;SDS011;3179;54.350;10.102;2024-02-15T02:08:59;6.87;;;5.20;;
6292;SDS011;3179;54.350;10.102;2024-02-15T02:11:28;5.03;;;3.97;;
6292;SDS011;3179;54.350;10.102;2024-02-15T02:13:54;5.70;;;4.47;;
6292;SDS011;3179;54.350;10.102;2024-02-15T02:16:24;6.30;;;4.57;;
6292;SDS011;3179;54.350;10.102;2024-02-15T02:18:52;5.43;;;4.37;;
6292;SDS011;3179;54.350;10.102;2024-02-15T02:21:20;7.30;;;5.07;;
6292;SDS011;3179;54.350;10.102;2024-02-15T02:23:48;7.33;;;5.27;;
6292;SDS011;3179;54.350;10.102;2024-02-15T02:26:20;7.03;;;5.70;;
6292;SDS011;3179;54.350;10.102;2024-02-15T02:28:48;5.07;;;4.50;;
6292;SDS011;3179;54.350;10.102;2024-02-15T02:31:15;6.07;;;4.40;;
6292;SDS011;3179;54.350;10.102;2024-02-15T02:33:43;5.27;;;4.60;;
6292;SDS011;3179;54.350;10.102;2024-02-15T02:36:14;5.07;;;4.40;;
6292;SDS011;3179;54.350;10.102;2024-02-15T02:38:41;5.30;;;4.50;;
6292;SDS011;3179;54.350;10.102;2024-02-15T02:41:10;6.13;;;4.60;;
6292;SDS011;3179;54.350;10.102;2024-02-15T02:43:38;6.00;;;4.57;;
6292;SDS011;3179;54.350;10.102;2024-02-15T02:46:05;5.13;;;4.10;;
6292;SDS011;3179;54.350;10.102;2024-02-15T02:48:32;5.27;;;4.23;;
6292;SDS011;3179;54.350;10.102;2024-02-15T02:50:59;6.10;;;4.50;;
6292;SDS011;3179;54.350;10.102;2024-02-15T02:53:26;4.97;;;4.40;;
6292;SDS011;3179;54.350;10.102;2024-02-15T02:55:53;6.00;;;4.67;;
6292;SDS011;3179;54.350;10.102;2024-02-15T02:58:22;6.50;;;4.43;;
6292;SDS011;3179;54.350;10.102;2024-02-15T03:00:50;4.73;;;4.03;;
6292;SDS011;3179;54.350;10.102;2024-02-15T03:03:17;6.30;;;4.97;;
6292;SDS011;3179;54.350;10.102;2024-02-15T03:05:45;8.97;;;4.40;;
6292;SDS011;3179;54.350;10.102;2024-02-15T03:08:12;4.30;;;3.53;;
6292;SDS011;3179;54.350;10.102;2024-02-15T03:10:39;5.60;;;4.20;;
6292;SDS011;3179;54.350;10.102;2024-02-15T03:13:06;5.37;;;4.17;;
6292;SDS011;3179;54.350;10.102;2024-02-15T03:15:34;4.07;;;3.67;;
6292;SDS011;3179;54.350;10.102;2024-02-15T03:18:02;7.73;;;5.30;;
6292;SDS011;3179;54.350;10.102;2024-02-15T03:20:32;5.40;;;3.70;;
6292;SDS011;3179;54.350;10.102;2024-02-15T03:23:00;5.10;;;4.00;;
6292;SDS011;3179;54.350;10.102;2024-02-15T03:25:28;3.97;;;3.63;;
6292;SDS011;3179;54.350;10.102;2024-02-15T03:27:56;5.57;;;4.57;;
6292;SDS011;3179;54.350;10.102;2024-02-15T03:30:25;4.83;;;4.40;;
6292;SDS011;3179;54.350;10.102;2024-02-15T03:32:56;6.93;;;5.17;;
6292;SDS011;3179;54.350;10.102;2024-02-15T03:35:25;4.47;;;4.07;;
6292;SDS011;3179;54.350;10.102;2024-02-15T03:37:53;6.40;;;3.90;;
6292;SDS011;3179;54.350;10.102;2024-02-15T03:40:21;7.70;;;4.50;;
6292;SDS011;3179;54.350;10.102;2024-02-15T03:42:51;4.37;;;3.77;;
6292;SDS011;3179;54.350;10.102;2024-02-15T03:45:18;4.20;;;3.73;;
6292;SDS011;3179;54.350;10.102;2024-02-15T03:47:45;4.77;;;3.73;;
6292;SDS011;3179;54.350;10.102;2024-02-15T03:50:14;3.43;;;3.13;;
6292;SDS011;3179;54.350;10.102;2024-02-15T03:52:43;3.07;;;2.87;;
6292;SDS011;3179;54.350;10.102;2024-02-15T03:55:10;4.10;;;3.70;;
6292;SDS011;3179;54.350;10.102;2024-02-15T03:57:37;3.90;;;3.50;;
6292;SDS011;3179;54.350;10.102;2024-02-15T04:00:06;4.30;;;3.60;;
6292;SDS011;3179;54.350;10.102;2024-02-15T04:02:36;3.60;;;3.20;;
6292;SDS011;3179;54.350;10.102;2024-02-15T04:05:05;3.53;;;3.23;;
6292;SDS011;3179;54.350;10.102;2024-02-15T04:07:34;3.53;;;3.00;;
6292;SDS011;3179;54.350;10.102;2024-02-15T04:10:03;2.97;;;2.77;;
6292;SDS011;3179;54.350;10.102;2024-02-15T04:12:31;4.13;;;3.20;;
6292;SDS011;3179;54.350;10.102;2024-02-15T04:14:58;5.23;;;3.80;;
6292;SDS011;3179;54.350;10.102;2024-02-15T04:17:30;5.43;;;3.20;;
6292;SDS011;3179;54.350;10.102;2024-02-15T04:19:59;3.37;;;3.07;;
6292;SDS011;3179;54.350;10.102;2024-02-15T04:22:28;3.23;;;2.93;;
6292;SDS011;3179;54.350;10.102;2024-02-15T04:24:56;2.70;;;2.50;;
6292;SDS011;3179;54.350;10.102;2024-02-15T04:27:25;3.13;;;2.83;;
6292;SDS011;3179;54.350;10.102;2024-02-15T04:29:52;3.53;;;3.00;;
6292;SDS011;3179;54.350;10.102;2024-02-15T04:32:19;2.67;;;2.50;;
6292;SDS011;3179;54.350;10.102;2024-02-15T04:34:47;3.17;;;2.87;;
6292;SDS011;3179;54.350;10.102;2024-02-15T04:37:13;2.80;;;2.60;;
6292;SDS011;3179;54.350;10.102;2024-02-15T04:39:41;2.77;;;2.57;;
6292;SDS011;3179;54.350;10.102;2024-02-15T04:42:08;3.40;;;3.10;;
6292;SDS011;3179;54.350;10.102;2024-02-15T04:44:38;2.70;;;2.50;;
6292;SDS011;3179;54.350;10.102;2024-02-15T04:47:05;3.57;;;3.27;;
6292;SDS011;3179;54.350;10.102;2024-02-15T04:49:33;3.53;;;3.23;;
6292;SDS011;3179;54.350;10.102;2024-02-15T04:52:03;3.47;;;3.17;;
6292;SDS011;3179;54.350;10.102;2024-02-15T04:54:30;4.20;;;3.80;;
6292;SDS011;3179;54.350;10.102;2024-02-15T04:56:57;2.87;;;2.67;;
6292;SDS011;3179;54.350;10.102;2024-02-15T04:59:25;3.10;;;2.90;;
6292;SDS011;3179;54.350;10.102;2024-02-15T05:01:55;3.53;;;3.23;;
6292;SDS011;3179;54.350;10.102;2024-02-15T05:04:22;3.70;;;3.40;;
6292;SDS011;3179;54.350;10.102;2024-02-15T05:06:49;3.37;;;3.07;;
6292;SDS011;3179;54.350;10.102;2024-02-15T05:09:16;4.07;;;3.77;;
6292;SDS011;3179;54.350;10.102;2024-02-15T05:11:43;3.43;;;3.13;;
6292;SDS011;3179;54.350;10.102;2024-02-15T05:14:12;2.87;;;2.67;;
6292;SDS011;3179;54.350;10.102;2024-02-15T05:16:44;3.70;;;3.40;;
6292;SDS011;3179;54.350;10.102;2024-02-15T05:19:14;3.67;;;3.23;;
6292;SDS011;3179;54.350;10.102;2024-02-15T05:21:41;6.43;;;3.50;;
6292;SDS011;3179;54.350;10.102;2024-02-15T05:24:10;3.30;;;3.00;;
6292;SDS011;3179;54.350;10.102;2024-02-15T05:26:38;3.33;;;3.03;;
6292;SDS011;3179;54.350;10.102;2024-02-15T05:29:07;4.03;;;3.63;;
6292;SDS011;3179;54.350;10.102;2024-02-15T05:31:34;3.77;;;3.37;;
6292;SDS011;3179;54.350;10.102;2024-02-15T05:34:04;4.00;;;3.60;;
6292;SDS011;3179;54.350;10.102;2024-02-15T05:36:34;4.80;;;4.30;;
6292;SDS011;3179;54.350;10.102;2024-02-15T05:39:01;6.00;;;3.87;;
6292;SDS011;3179;54.350;10.102;2024-02-15T05:41:29;5.77;;;4.07;;
6292;SDS011;3179;54.350;10.102;2024-02-15T05:43:57;4.07;;;3.67;;
6292;SDS011;3179;54.350;10.102;2024-02-15T05:46:24;5.20;;;4.10;;
6292;SDS011;3179;54.350;10.102;2024-02-15T05:48:53;4.47;;;4.07;;
6292;SDS011;3179;54.350;10.102;2024-02-15T05:51:21;6.23;;;4.30;;
6292;SDS011;3179;54.350;10.102;2024-02-15T05:53:50;4.53;;;3.67;;
6292;SDS011;3179;54.350;10.102;2024-02-15T05:56:20;6.43;;;4.90;;
6292;SDS011;3179;54.350;10.102;2024-02-15T05:58:46;6.10;;;4.80;;
6292;SDS011;3179;54.350;10.102;2024-02-15T06:01:13;7.53;;;5.50;;
6292;SDS011;3179;54.350;10.102;2024-02-15T06:03:40;7.50;;;5.63;;
6292;SDS011;3179;54.350;10.102;2024-02-15T06:06:09;9.00;;;4.90;;
6292;SDS011;3179;54.350;10.102;2024-02-15T06:08:36;8.37;;;5.13;;
6292;SDS011;3179;54.350;10.102;2024-02-15T06:11:05;10.93;;;6.93;;
6292;SDS011;3179;54.350;10.102;2024-02-15T06:13:33;14.23;;;8.13;;
6292;SDS011;3179;54.350;10.102;2024-02-15T06:16:00;9.37;;;6.13;;
6292;SDS011;3179;54.350;10.102;2024-02-15T06:18:27;9.90;;;6.67;;
6292;SDS011;3179;54.350;10.102;2024-02-15T06:20:58;13.30;;;6.33;;
6292;SDS011;3179;54.350;10.102;2024-02-15T06:23:26;12.10;;;5.70;;
6292;SDS011;3179;54.350;10.102;2024-02-15T06:25:53;7.30;;;5.47;;
6292;SDS011;3179;54.350;10.102;2024-02-15T06:28:22;11.17;;;7.43;;
6292;SDS011;3179;54.350;10.102;2024-02-15T06:31:03;9.10;;;5.73;;
6292;SDS011;3179;54.350;10.102;2024-02-15T06:33:48;7.93;;;5.20;;
6292;SDS011;3179;54.350;10.102;2024-02-15T06:36:32;11.57;;;6.20;;
6292;SDS011;3179;54.350;10.102;2024-02-15T06:39:16;9.23;;;6.17;;
6292;SDS011;3179;54.350;10.102;2024-02-15T06:42:00;9.50;;;6.40;;
6292;SDS011;3179;54.350;10.102;2024-02-15T06:44:29;11.63;;;7.40;;
6292;SDS011;3179;54.350;10.102;2024-02-15T06:46:55;9.57;;;6.23;;
6292;SDS011;3179;54.350;10.102;2024-02-15T06:49:23;14.60;;;7.57;;
6292;SDS011;3179;54.350;10.102;2024-02-15T06:51:50;10.80;;;6.80;;
6292;SDS011;3179;54.350;10.102;2024-02-15T06:54:17;10.13;;;6.17;;
6292;SDS011;3179;54.350;10.102;2024-02-15T06:56:45;9.90;;;6.23;;
6292;SDS011;3179;54.350;10.102;2024-02-15T06:59:12;11.10;;;6.60;;
6292;SDS011;3179;54.350;10.102;2024-02-15T07:01:41;17.30;;;7.00;;
6292;SDS011;3179;54.350;10.102;2024-02-15T07:04:08;7.80;;;5.90;;
6292;SDS011;3179;54.350;10.102;2024-02-15T07:06:35;8.03;;;5.50;;
6292;SDS011;3179;54.350;10.102;2024-02-15T07:09:03;10.83;;;6.50;;
6292;SDS011;3179;54.350;10.102;2024-02-15T07:11:31;12.53;;;6.10;;
6292;SDS011;3179;54.350;10.102;2024-02-15T07:13:59;8.90;;;6.57;;
6292;SDS011;3179;54.350;10.102;2024-02-15T07:16:26;8.80;;;6.37;;
6292;SDS011;3179;54.350;10.102;2024-02-15T07:18:54;12.00;;;7.00;;
6292;SDS011;3179;54.350;10.102;2024-02-15T07:21:21;9.53;;;6.77;;
6292;SDS011;3179;54.350;10.102;2024-02-15T07:23:52;7.97;;;6.40;;
6292;SDS011;3179;54.350;10.102;2024-02-15T07:26:19;9.23;;;6.60;;
6292;SDS011;3179;54.350;10.102;2024-02-15T07:28:49;8.83;;;6.57;;
6292;SDS011;3179;54.350;10.102;2024-02-15T07:31:17;7.90;;;6.63;;
6292;SDS011;3179;54.350;10.102;2024-02-15T07:33:46;10.57;;;6.33;;
6292;SDS011;3179;54.350;10.102;2024-02-15T07:36:15;13.83;;;7.67;;
6292;SDS011;3179;54.350;10.102;2024-02-15T07:38:46;13.90;;;8.17;;
6292;SDS011;3179;54.350;10.102;2024-02-15T07:41:13;13.77;;;8.73;;
6292;SDS011;3179;54.350;10.102;2024-02-15T07:43:40;15.53;;;8.80;;
6292;SDS011;3179;54.350;10.102;2024-02-15T07:46:08;14.87;;;8.83;;
6292;SDS011;3179;54.350;10.102;2024-02-15T07:48:39;14.27;;;8.80;;
6292;SDS011;3179;54.350;10.102;2024-02-15T07:51:10;14.83;;;9.17;;
6292;SDS011;3179;54.350;10.102;2024-02-15T07:53:39;14.23;;;9.40;;
6292;SDS011;3179;54.350;10.102;2024-02-15T07:56:07;16.07;;;9.57;;
6292;SDS011;3179;54.350;10.102;2024-02-15T07:58:34;15.07;;;9.23;;
6292;SDS011;3179;54.350;10.102;2024-02-15T08:01:04;15.73;;;10.67;;
6292;SDS011;3179;54.350;10.102;2024-02-15T08:03:31;16.50;;;9.83;;
6292;SDS011;3179;54.350;10.102;2024-02-15T08:06:00;15.20;;;9.33;;
6292;SDS011;3179;54.350;10.102;2024-02-15T08:08:29;19.27;;;10.40;;
6292;SDS011;3179;54.350;10.102;2024-02-15T08:10:57;17.73;;;10.70;;
6292;SDS011;3179;54.350;10.102;2024-02-15T08:13:24;13.67;;;9.00;;
6292;SDS011;3179;54.350;10.102;2024-02-15T08:15:54;16.50;;;9.90;;
6292;SDS011;3179;54.350;10.102;2024-02-15T08:18:21;15.97;;;9.00;;
6292;SDS011;3179;54.350;10.102;2024-02-15T08:20:48;11.20;;;7.73;;
6292;SDS011;3179;54.350;10.102;2024-02-15T08:23:15;14.50;;;8.67;;
6292;SDS011;3179;54.350;10.102;2024-02-15T08:25:42;15.47;;;7.53;;
6292;SDS011;3179;54.350;10.102;2024-02-15T08:28:10;13.70;;;8.20;;
6292;SDS011;3179;54.350;10.102;2024-02-15T08:30:38;14.87;;;8.30;;
6292;SDS011;3179;54.350;10.102;2024-02-15T08:33:06;11.80;;;7.37;;
6292;SDS011;3179;54.350;10.102;2024-02-15T08:35:39;13.43;;;7.20;;
6292;SDS011;3179;54.350;10.102;2024-02-15T08:38:06;14.47;;;8.60;;
6292;SDS011;3179;54.350;10.102;2024-02-15T08:40:35;13.47;;;9.40;;
6292;SDS011;3179;54.350;10.102;2024-02-15T08:43:02;12.57;;;7.63;;
6292;SDS011;3179;54.350;10.102;2024-02-15T08:45:33;9.43;;;7.37;;
6292;SDS011;3179;54.350;10.102;2024-02-15T08:48:00;9.70;;;6.90;;
6292;SDS011;3179;54.350;10.102;2024-02-15T08:50:29;10.93;;;7.33;;
6292;SDS011;3179;54.350;10.102;2024-02-15T08:52:58;13.67;;;8.83;;
6292;SDS011;3179;54.350;10.102;2024-02-15T08:55:24;15.73;;;8.90;;
6292;SDS011;3179;54.350;10.102;2024-02-15T08:57:52;12.00;;;7.80;;
6292;SDS011;3179;54.350;10.102;2024-02-15T09:00:20;16.80;;;8.70;;
6292;SDS011;3179;54.350;10.102;2024-02-15T09:02:48;11.93;;;9.23;;
6292;SDS011;3179;54.350;10.102;2024-02-15T09:05:16;12.23;;;7.83;;
6292;SDS011;3179;54.350;10.102;2024-02-15T09:07:43;13.70;;;9.53;;
6292;SDS011;3179;54.350;10.102;2024-02-15T09:10:13;14.57;;;9.07;;
6292;SDS011;3179;54.350;10.102;2024-02-15T09:12:42;16.40;;;9.63;;
6292;SDS011;3179;54.350;10.102;2024-02-15T09:15:12;15.20;;;9.57;;
6292;SDS011;3179;54.350;10.102;2024-02-15T09:17:39;14.83;;;9.40;;
6292;SDS011;3179;54.350;10.102;2024-02-15T09:20:08;15.00;;;9.03;;
6292;SDS011;3179;54.350;10.102;2024-02-15T09:22:39;12.97;;;8.20;;
6292;SDS011;3179;54.350;10.102;2024-02-15T09:25:07;14.87;;;9.00;;
6292;SDS011;3179;54.350;10.102;2024-02-15T09:27:38;11.17;;;7.87;;
6292;SDS011;3179;54.350;10.102;2024-02-15T09:30:05;15.60;;;9.10;;
6292;SDS011;3179;54.350;10.102;2024-02-15T09:32:34;13.47;;;8.40;;
6292;SDS011;3179;54.350;10.102;2024-02-15T09:35:01;16.03;;;9.13;;
6292;SDS011;3179;54.350;10.102;2024-02-15T09:37:34;16.07;;;9.40;;
6292;SDS011;3179;54.350;10.102;2024-02-15T09:40:02;16.80;;;8.93;;
6292;SDS011;3179;54.350;10.102;2024-02-15T09:42:32;10.60;;;8.40;;
6292;SDS011;3179;54.350;10.102;2024-02-15T09:44:59;13.37;;;8.57;;
6292;SDS011;3179;54.350;10.102;2024-02-15T09:47:30;13.23;;;8.30;;
6292;SDS011;3179;54.350;10.102;2024-02-15T09:50:01;13.90;;;8.00;;
6292;SDS011;3179;54.350;10.102;2024-02-15T09:52:31;11.40;;;7.73;;
6292;SDS011;3179;54.350;10.102;2024-02-15T09:55:02;10.90;;;6.33;;
6292;SDS011;3179;54.350;10.102;2024-02-15T09:57:29;12.80;;;7.60;;
6292;SDS011;3179;54.350;10.102;2024-02-15T09:59:58;11.33;;;7.37;;
6292;SDS011;3179;54.350;10.102;2024-02-15T10:02:26;16.20;;;9.20;;
6292;SDS011;3179;54.350;10.102;2024-02-15T10:04:53;13.43;;;8.10;;
6292;SDS011;3179;54.350;10.102;2024-02-15T10:07:22;12.93;;;7.60;;
6292;SDS011;3179;54.350;10.102;2024-02-15T10:09:50;10.23;;;6.93;;
6292;SDS011;3179;54.350;10.102;2024-02-15T10:12:17;14.00;;;9.00;;
6292;SDS011;3179;54.350;10.102;2024-02-15T10:14:47;14.10;;;8.37;;
6292;SDS011;3179;54.350;10.102;2024-02-15T10:17:17;15.70;;;8.90;;
6292;SDS011;3179;54.350;10.102;2024-02-15T10:19:45;13.33;;;8.47;;
6292;SDS011;3179;54.350;10.102;2024-02-15T10:22:28;12.43;;;8.10;;
6292;SDS011;3179;54.350;10.102;2024-02-15T10:25:00;12.73;;;8.53;;
6292;SDS011;3179;54.350;10.102;2024-02-15T10:27:37;11.30;;;8.33;;
6292;SDS011;3179;54.350;10.102;2024-02-15T10:30:13;12.07;;;8.83;;
6292;SDS011;3179;54.350;10.102;2024-02-15T10:32:41;14.00;;;8.70;;
6292;SDS011;3179;54.350;10.102;2024-02-15T10:35:09;10.70;;;7.83;;
6292;SDS011;3179;54.350;10.102;2024-02-15T10:37:40;13.87;;;8.07;;
6292;SDS011;3179;54.350;10.102;2024-02-15T10:40:10;17.37;;;8.30;;
6292;SDS011;3179;54.350;10.102;2024-02-15T10:42:38;13.30;;;8.90;;
6292;SDS011;3179;54.350;10.102;2024-02-15T10:45:07;10.20;;;7.73;;
6292;SDS011;3179;54.350;10.102;2024-02-15T10:47:36;13.33;;;7.87;;
6292;SDS011;3179;54.350;10.102;2024-02-15T10:50:04;10.87;;;7.97;;
6292;SDS011;3179;54.350;10.102;2024-02-15T10:52:32;11.40;;;7.63;;
6292;SDS011;3179;54.350;10.102;2024-02-15T10:55:05;12.83;;;8.30;;
6292;SDS011;3179;54.350;10.102;2024-02-15T10:57:41;9.63;;;7.30;;
6292;SDS011;3179;54.350;10.102;2024-02-15T11:00:12;13.67;;;7.47;;
6292;SDS011;3179;54.350;10.102;2024-02-15T11:02:46;10.50;;;7.30;;
6292;SDS011;3179;54.350;10.102;2024-02-15T11:05:20;12.97;;;8.20;;
6292;SDS011;3179;54.350;10.102;2024-02-15T11:07:49;11.13;;;7.30;;
6292;SDS011;3179;54.350;10.102;2024-02-15T11:10:16;7.20;;;6.50;;
6292;SDS011;3179;54.350;10.102;2024-02-15T11:12:44;11.80;;;7.77;;
6292;SDS011;3179;54.350;10.102;2024-02-15T11:15:12;7.70;;;6.67;;
6292;SDS011;3179;54.350;10.102;2024-02-15T11:18:12;10.60;;;7.30;;
6292;SDS011;3179;54.350;10.102;2024-02-15T11:20:45;9.60;;;6.57;;
6292;SDS011;3179;54.350;10.102;2024-02-15T11:23:27;7.13;;;6.10;;
6292;SDS011;3179;54.350;10.102;2024-02-15T11:25:54;7.30;;;6.10;;
6292;SDS011;3179;54.350;10.102;2024-02-15T11:34:41;5.93;;;5.17;;
6292;SDS011;3179;54.350;10.102;2024-02-15T11:37:25;5.87;;;5.27;;
6292;SDS011;3179;54.350;10.102;2024-02-15T11:40:19;4.47;;;4.07;;
6292;SDS011;3179;54.350;10.102;2024-02-15T11:42:48;6.10;;;4.40;;
6292;SDS011;3179;54.350;10.102;2024-02-15T11:45:16;5.40;;;4.87;;
6292;SDS011;3179;54.350;10.102;2024-02-15T11:47:46;7.00;;;4.97;;
6292;SDS011;3179;54.350;10.102;2024-02-15T11:50:15;7.77;;;5.70;;
6292;SDS011;3179;54.350;10.102;2024-02-15T11:52:42;6.47;;;5.30;;
6292;SDS011;3179;54.350;10.102;2024-02-15T11:55:11;8.23;;;5.77;;
6292;SDS011;3179;54.350;10.102;2024-02-15T11:57:38;7.33;;;5.73;;
6292;SDS011;3179;54.350;10.102;2024-02-15T12:00:21;7.80;;;6.53;;
6292;SDS011;3179;54.350;10.102;2024-02-15T12:03:06;7.53;;;6.00;;
6292;SDS011;3179;54.350;10.102;2024-02-15T12:05:51;8.33;;;6.40;;
6292;SDS011;3179;54.350;10.102;2024-02-15T12:08:36;8.40;;;7.10;;
6292;SDS011;3179;54.350;10.102;2024-02-15T12:11:20;9.00;;;7.00;;
6292;SDS011;3179;54.350;10.102;2024-02-15T12:14:04;8.93;;;7.00;;
6292;SDS011;3179;54.350;10.102;2024-02-15T12:16:59;15.10;;;8.40;;
6292;SDS011;3179;54.350;10.102;2024-02-15T12:19:44;9.87;;;8.30;;
6292;SDS011;3179;54.350;10.102;2024-02-15T12:22:11;11.50;;;8.33;;
6292;SDS011;3179;54.350;10.102;2024-02-15T12:24:38;13.63;;;9.57;;
6292;SDS011;3179;54.350;10.102;2024-02-15T12:27:05;12.97;;;8.73;;
6292;SDS011;3179;54.350;10.102;2024-02-15T12:29:32;12.53;;;9.27;;
6292;SDS011;3179;54.350;10.102;2024-02-15T12:32:01;12.57;;;9.23;;
6292;SDS011;3179;54.350;10.102;2024-02-15T12:34:28;12.23;;;9.50;;
6292;SDS011;3179;54.350;10.102;2024-02-15T12:37:04;15.37;;;11.03;;
6292;SDS011;3179;54.350;10.102;2024-02-15T12:39:33;12.37;;;9.07;;
6292;SDS011;3179;54.350;10.102;2024-02-15T12:42:02;16.17;;;11.37;;
6292;SDS011;3179;54.350;10.102;2024-02-15T12:44:29;14.50;;;10.47;;
6292;SDS011;3179;54.350;10.102;2024-02-15T12:46:58;12.90;;;9.60;;
6292;SDS011;3179;54.350;10.102;2024-02-15T12:49:29;17.00;;;11.40;;
6292;SDS011;3179;54.350;10.102;2024-02-15T12:55:08;13.33;;;10.40;;
6292;SDS011;3179;54.350;10.102;2024-02-15T12:57:39;13.93;;;10.40;;
6292;SDS011;3179;54.350;10.102;2024-02-15T13:00:10;16.43;;;10.37;;
6292;SDS011;3179;54.350;10.102;2024-02-15T13:02:42;12.50;;;10.20;;
6292;SDS011;3179;54.350;10.102;2024-02-15T13:05:11;14.57;;;10.13;;
6292;SDS011;3179;54.350;10.102;2024-02-15T13:07:38;12.17;;;9.70;;
6292;SDS011;3179;54.350;10.102;2024-02-15T13:10:06;11.60;;;8.77;;
6292;SDS011;3179;54.350;10.102;2024-02-15T13:12:33;12.60;;;9.80;;
6292;SDS011;3179;54.350;10.102;2024-02-15T13:15:02;13.00;;;8.97;;
6292;SDS011;3179;54.350;10.102;2024-02-15T13:17:30;14.70;;;10.37;;
6292;SDS011;3179;54.350;10.102;2024-02-15T13:19:58;16.43;;;10.87;;
6292;SDS011;3179;54.350;10.102;2024-02-15T13:22:31;10.60;;;8.70;;
6292;SDS011;3179;54.350;10.102;2024-02-15T13:24:59;10.70;;;9.40;;
6292;SDS011;3179;54.350;10.102;2024-02-15T13:27:28;13.30;;;8.33;;
6292;SDS011;3179;54.350;10.102;2024-02-15T13:29:55;10.53;;;9.43;;
6292;SDS011;3179;54.350;10.102;2024-02-15T13:32:23;11.53;;;9.40;;
6292;SDS011;3179;54.350;10.102;2024-02-15T13:34:50;11.20;;;9.40;;
6292;SDS011;3179;54.350;10.102;2024-02-15T13:37:20;12.70;;;9.10;;
6292;SDS011;3179;54.350;10.102;2024-02-15T13:39:49;13.00;;;9.67;;
6292;SDS011;3179;54.350;10.102;2024-02-15T13:42:17;12.80;;;9.80;;
6292;SDS011;3179;54.350;10.102;2024-02-15T13:44:44;12.50;;;10.30;;
6292;SDS011;3179;54.350;10.102;2024-02-15T13:47:13;12.70;;;10.47;;
6292;SDS011;3179;54.350;10.102;2024-02-15T13:49:41;12.40;;;9.73;;
6292;SDS011;3179;54.350;10.102;2024-02-15T13:52:08;11.63;;;9.10;;
6292;SDS011;3179;54.350;10.102;2024-02-15T13:54:37;12.07;;;8.57;;
6292;SDS011;3179;54.350;10.102;2024-02-15T13:57:06;9.53;;;8.53;;
6292;SDS011;3179;54.350;10.102;2024-02-15T13:59:33;11.50;;;9.43;;
6292;SDS011;3179;54.350;10.102;2024-02-15T14:02:00;12.97;;;8.83;;
6292;SDS011;3179;54.350;10.102;2024-02-15T14:04:28;14.30;;;9.80;;
6292;SDS011;3179;54.350;10.102;2024-02-15T14:06:57;8.43;;;7.50;;
6292;SDS011;3179;54.350;10.102;2024-02-15T14:09:24;9.13;;;7.20;;
6292;SDS011;3179;54.350;10.102;2024-02-15T14:11:52;10.87;;;8.33;;
6292;SDS011;3179;54.350;10.102;2024-02-15T14:14:20;7.57;;;6.80;;
6292;SDS011;3179;54.350;10.102;2024-02-15T14:16:48;8.43;;;7.13;;
6292;SDS011;3179;54.350;10.102;2024-02-15T14:19:15;9.20;;;6.97;;
6292;SDS011;3179;54.350;10.102;2024-02-15T14:21:42;7.90;;;7.10;;
6292;SDS011;3179;54.350;10.102;2024-02-15T14:24:10;9.13;;;7.50;;
6292;SDS011;3179;54.350;10.102;2024-02-15T14:26:38;8.47;;;7.57;;
6292;SDS011;3179;54.350;10.102;2024-02-15T14:29:04;9.50;;;7.07;;
6292;SDS011;3179;54.350;10.102;2024-02-15T14:31:33;7.20;;;5.90;;
6292;SDS011;3179;54.350;10.102;2024-02-15T14:34:17;8.73;;;6.43;;
6292;SDS011;3179;54.350;10.102;2024-02-15T14:36:45;7.37;;;6.57;;
6292;SDS011;3179;54.350;10.102;2024-02-15T14:39:12;6.87;;;6.17;;
6292;SDS011;3179;54.350;10.102;2024-02-15T14:41:40;6.70;;;6.07;;
6292;SDS011;3179;54.350;10.102;2024-02-15T14:44:08;6.93;;;6.20;;
6292;SDS011;3179;54.350;10.102;2024-02-15T14:46:39;6.87;;;6.20;;
6292;SDS011;3179;54.350;10.102;2024-02-15T14:49:05;7.37;;;6.07;;
6292;SDS011;3179;54.350;10.102;2024-02-15T14:51:33;6.93;;;6.30;;
6292;SDS011;3179;54.350;10.102;2024-02-15T14:54:02;6.70;;;6.10;;
6292;SDS011;3179;54.350;10.102;2024-02-15T14:56:29;7.77;;;6.97;;
6292;SDS011;3179;54.350;10.102;2024-02-15T14:58:58;8.77;;;7.07;;
6292;SDS011;3179;54.350;10.102;2024-02-15T15:01:25;9.93;;;6.80;;
6292;SDS011;3179;54.350;10.102;2024-02-15T15:03:54;7.30;;;6.60;;
6292;SDS011;3179;54.350;10.102;2024-02-15T15:06:24;7.30;;;6.60;;
6292;SDS011;3179;54.350;10.102;2024-02-15T15:09:09;6.63;;;6.00;;
6292;SDS011;3179;54.350;10.102;2024-02-15T15:11:54;9.60;;;7.63;;
6292;SDS011;3179;54.350;10.102;2024-02-15T15:14:39;7.23;;;6.53;;
6292;SDS011;3179;54.350;10.102;2024-02-15T15:17:06;6.43;;;5.90;;